createdAt,value
2023-10-11T00:00:41.040Z,17.05
2023-10-11T00:03:19.415Z,17.05
2023-10-11T00:05:47.679Z,17.03
2023-10-11T00:08:17.422Z,17.03
2023-10-11T00:10:55.263Z,17.04
2023-10-11T00:13:32.680Z,17.03
2023-10-11T00:16:00.495Z,17.03
2023-10-11T00:18:32.158Z,17.02
2023-10-11T00:21:00.572Z,17.01
2023-10-11T00:23:28.700Z,17.00
2023-10-11T00:26:01.812Z,17.01
2023-10-11T00:28:32.948Z,16.99
2023-10-11T00:31:01.952Z,16.97
2023-10-11T00:33:39.102Z,16.95
2023-10-11T00:36:07.675Z,16.95
2023-10-11T00:38:44.689Z,16.94
2023-10-11T00:41:19.466Z,16.94
2023-10-11T00:43:50.725Z,16.92
2023-10-11T00:46:20.531Z,16.93
2023-10-11T00:49:23.878Z,16.92
2023-10-11T00:51:50.696Z,16.90
2023-10-11T00:54:18.177Z,16.89
2023-10-11T00:56:46.572Z,16.89
2023-10-11T00:59:17.924Z,16.89
2023-10-11T01:01:46.465Z,16.89
2023-10-11T01:04:17.414Z,16.88
2023-10-11T01:06:44.753Z,16.89
2023-10-11T01:09:18.587Z,16.89
2023-10-11T01:11:49.356Z,16.89
2023-10-11T01:14:16.582Z,16.88
2023-10-11T01:16:44.045Z,16.86
2023-10-11T01:19:18.428Z,16.88
2023-10-11T01:21:53.056Z,16.87
2023-10-11T01:24:19.779Z,16.87
2023-10-11T01:26:46.448Z,16.88
2023-10-11T01:29:13.312Z,16.88
2023-10-11T01:31:39.984Z,16.88
2023-10-11T01:34:06.824Z,16.89
2023-10-11T01:36:35.541Z,16.88
2023-10-11T01:39:07.830Z,16.87
2023-10-11T01:41:34.658Z,16.85
2023-10-11T01:44:01.164Z,16.86
2023-10-11T01:46:28.504Z,16.86
2023-10-11T01:48:56.811Z,16.85
2023-10-11T01:51:28.999Z,16.84
2023-10-11T01:53:56.941Z,16.85
2023-10-11T01:56:27.220Z,16.86
2023-10-11T01:59:02.015Z,16.87
2023-10-11T02:01:31.864Z,16.84
2023-10-11T02:04:01.108Z,16.85
2023-10-11T02:06:32.960Z,16.83
2023-10-11T02:09:00.388Z,16.82
2023-10-11T02:11:30.620Z,16.81
2023-10-11T02:13:58.820Z,16.81
2023-10-11T02:16:26.476Z,16.80
2023-10-11T02:18:56.849Z,16.80
2023-10-11T02:21:24.795Z,16.79
2023-10-11T02:23:51.519Z,16.79
2023-10-11T02:26:18.339Z,16.78
2023-10-11T02:28:46.241Z,16.75
2023-10-11T02:31:15.598Z,16.73
2023-10-11T02:33:42.203Z,16.72
2023-10-11T02:36:18.352Z,16.71
2023-10-11T02:38:49.046Z,16.70
2023-10-11T02:41:22.105Z,16.67
2023-10-11T02:43:51.543Z,16.67
2023-10-11T02:46:18.864Z,16.63
2023-10-11T02:48:47.249Z,16.61
2023-10-11T02:51:18.680Z,16.62
2023-10-11T02:53:45.313Z,16.61
2023-10-11T02:56:12.630Z,16.57
2023-10-11T02:58:42.109Z,16.57
2023-10-11T03:01:24.040Z,16.56
2023-10-11T03:03:50.909Z,16.53
2023-10-11T03:06:20.083Z,16.51
2023-10-11T03:08:46.757Z,16.48
2023-10-11T03:11:17.024Z,16.47
2023-10-11T03:13:44.565Z,16.45
2023-10-11T03:16:14.947Z,16.45
2023-10-11T03:18:42.785Z,16.42
2023-10-11T03:21:17.951Z,16.43
2023-10-11T03:23:55.871Z,16.42
2023-10-11T03:26:32.511Z,16.39
2023-10-11T03:29:05.561Z,16.37
2023-10-11T03:31:34.370Z,16.35
2023-10-11T03:34:12.045Z,16.35
2023-10-11T03:36:53.299Z,16.32
2023-10-11T03:39:40.578Z,16.30
2023-10-11T03:42:13.573Z,16.29
2023-10-11T03:44:48.452Z,16.28
2023-10-11T03:47:16.008Z,16.27
2023-10-11T03:49:43.080Z,16.26
2023-10-11T03:52:23.832Z,16.24
2023-10-11T03:54:55.601Z,16.23
2023-10-11T03:57:23.839Z,16.20
2023-10-11T03:59:53.562Z,16.20
2023-10-11T04:02:20.869Z,16.18
2023-10-11T04:04:50.785Z,16.18
2023-10-11T04:07:18.344Z,16.17
2023-10-11T04:09:48.085Z,16.18
2023-10-11T04:12:15.587Z,16.18
2023-10-11T04:14:43.425Z,16.18
2023-10-11T04:17:16.126Z,16.19
2023-10-11T04:19:44.505Z,16.19
2023-10-11T04:22:14.196Z,16.20
2023-10-11T04:24:42.285Z,16.22
2023-10-11T04:27:34.646Z,16.21
2023-10-11T04:30:18.772Z,16.21
2023-10-11T04:32:48.368Z,16.22
2023-10-11T04:35:25.719Z,16.24
2023-10-11T04:37:55.786Z,16.26
2023-10-11T04:40:25.212Z,16.27
2023-10-11T04:43:05.838Z,16.27
2023-10-11T04:48:19.909Z,16.28
2023-10-11T04:50:51.759Z,16.30
2023-10-11T04:53:19.383Z,16.29
2023-10-11T04:55:48.660Z,16.29
2023-10-11T04:58:40.799Z,16.27
2023-10-11T05:01:09.952Z,16.30
2023-10-11T05:03:39.736Z,16.29
2023-10-11T05:06:21.101Z,16.28
2023-10-11T05:08:55.383Z,16.30
2023-10-11T05:11:40.248Z,16.28
2023-10-11T05:14:25.509Z,16.27
2023-10-11T05:16:52.275Z,16.25
2023-10-11T05:19:22.243Z,16.25
2023-10-11T05:22:03.504Z,16.26
2023-10-11T05:24:45.546Z,16.26
2023-10-11T05:27:30.993Z,16.26
2023-10-11T05:30:06.963Z,16.26
2023-10-11T05:32:34.791Z,16.26
2023-10-11T05:35:16.243Z,16.26
2023-10-11T05:38:01.762Z,16.27
2023-10-11T05:40:46.700Z,16.27
2023-10-11T05:43:31.510Z,16.26
2023-10-11T05:46:16.401Z,16.25
2023-10-11T05:49:01.397Z,16.24
2023-10-11T05:51:30.931Z,16.24
2023-10-11T05:54:00.672Z,16.22
2023-10-11T05:56:34.919Z,16.22
2023-10-11T05:59:05.608Z,16.23
2023-10-11T06:01:32.429Z,16.24
2023-10-11T06:04:05.100Z,16.23
2023-10-11T06:06:46.693Z,16.24
2023-10-11T06:09:19.649Z,16.26
2023-10-11T06:11:50.913Z,16.25
2023-10-11T06:14:21.869Z,16.27
2023-10-11T06:16:51.197Z,16.27
2023-10-11T06:19:18.528Z,16.28
2023-10-11T06:22:10.985Z,16.29
2023-10-11T06:24:40.813Z,16.30
2023-10-11T06:27:25.953Z,16.30
2023-10-11T06:29:55.574Z,16.32
2023-10-11T06:32:23.518Z,16.32
2023-10-11T06:34:51.821Z,16.36
2023-10-11T06:37:21.128Z,16.38
2023-10-11T06:39:48.030Z,16.41
2023-10-11T06:42:23.396Z,16.43
2023-10-11T06:44:53.207Z,16.46
2023-10-11T06:47:23.487Z,16.49
2023-10-11T06:49:57.870Z,16.52
2023-10-11T06:52:32.401Z,16.54
2023-10-11T06:55:15.002Z,16.59
2023-10-11T06:57:42.675Z,16.63
2023-10-11T07:00:30.037Z,16.66
2023-10-11T07:03:09.019Z,16.70
2023-10-11T07:05:48.285Z,16.73
2023-10-11T07:08:19.214Z,16.77
2023-10-11T07:11:09.178Z,16.79
2023-10-11T07:13:55.812Z,16.81
2023-10-11T07:16:32.579Z,16.83
2023-10-11T07:18:59.599Z,16.86
2023-10-11T07:21:28.679Z,16.86
2023-10-11T07:23:55.438Z,16.88
2023-10-11T07:26:33.071Z,16.88
2023-10-11T07:29:02.245Z,16.88
2023-10-11T07:31:33.756Z,16.90
2023-10-11T07:34:11.044Z,16.91
2023-10-11T07:36:39.941Z,16.92
2023-10-11T07:39:17.275Z,16.95
2023-10-11T07:41:44.747Z,16.96
2023-10-11T07:44:13.378Z,16.98
2023-10-11T07:46:40.221Z,17.01
2023-10-11T07:49:07.509Z,17.03
2023-10-11T07:51:40.919Z,17.05
2023-10-11T07:54:08.824Z,17.05
2023-10-11T07:56:37.137Z,17.08
2023-10-11T07:59:10.555Z,17.09
2023-10-11T08:01:43.923Z,17.11
2023-10-11T08:04:13.230Z,17.13
2023-10-11T08:06:42.570Z,17.14
2023-10-11T08:09:10.525Z,17.19
2023-10-11T08:11:46.728Z,17.22
2023-10-11T08:14:16.473Z,17.24
2023-10-11T08:16:43.782Z,17.28
2023-10-11T08:19:13.517Z,17.28
2023-10-11T08:21:40.305Z,17.33
2023-10-11T08:24:16.708Z,17.37
2023-10-11T08:26:45.518Z,17.39
2023-10-11T08:29:31.970Z,17.38
2023-10-11T08:31:59.805Z,17.37
2023-10-11T08:34:28.344Z,17.37
2023-10-11T08:36:56.241Z,17.35
2023-10-11T08:39:28.421Z,17.35
2023-10-11T08:41:59.625Z,17.37
2023-10-11T08:44:29.256Z,17.37
2023-10-11T08:46:58.647Z,17.37
2023-10-11T08:49:25.497Z,17.38
2023-10-11T08:51:57.999Z,17.39
2023-10-11T08:54:27.837Z,17.41
2023-10-11T08:56:58.876Z,17.40
2023-10-11T08:59:26.847Z,17.42
2023-10-11T09:02:08.177Z,17.41
2023-10-11T09:04:36.711Z,17.41
2023-10-11T09:07:03.631Z,17.41
2023-10-11T09:09:39.896Z,17.41
2023-10-11T09:12:27.595Z,17.42
2023-10-11T09:15:01.893Z,17.39
2023-10-11T09:17:28.882Z,17.41
2023-10-11T09:19:59.108Z,17.43
2023-10-11T09:22:25.742Z,17.46
2023-10-11T09:25:34.761Z,17.46
2023-10-11T09:28:01.411Z,17.47
2023-10-11T09:30:28.414Z,17.48
2023-10-11T09:33:01.245Z,17.49
2023-10-11T09:35:29.165Z,17.53
2023-10-11T09:37:57.541Z,17.56
2023-10-11T09:40:28.317Z,17.56
2023-10-11T09:43:01.915Z,17.59
2023-10-11T09:45:43.721Z,17.60
2023-10-11T09:48:13.599Z,17.60
2023-10-11T09:50:44.287Z,17.61
2023-10-11T09:53:14.636Z,17.61
2023-10-11T09:55:51.212Z,17.63
2023-10-11T09:58:36.312Z,17.64
2023-10-11T10:01:11.692Z,17.64
2023-10-11T10:03:46.750Z,17.69
2023-10-11T10:06:26.319Z,17.71
2023-10-11T10:09:18.150Z,17.74
2023-10-11T10:12:21.364Z,17.83
2023-10-11T10:14:54.454Z,17.88
2023-10-11T10:17:21.148Z,17.90
2023-10-11T10:19:48.351Z,17.93
2023-10-11T10:22:24.150Z,17.99
2023-10-11T10:24:57.819Z,18.05
2023-10-11T10:27:24.386Z,18.13
2023-10-11T10:30:07.013Z,18.18
2023-10-11T10:32:34.605Z,18.22
2023-10-11T10:35:19.644Z,18.29
2023-10-11T10:37:49.372Z,18.39
2023-10-11T10:40:26.671Z,18.48
2023-10-11T10:43:21.860Z,18.56
2023-10-11T10:45:53.787Z,18.66
2023-10-11T10:48:24.729Z,18.74
2023-10-11T10:50:54.088Z,18.82
2023-10-11T10:53:22.878Z,18.88
2023-10-11T10:55:49.462Z,18.95
2023-10-11T10:58:23.310Z,19.05
2023-10-11T11:00:54.187Z,19.19
2023-10-11T11:03:22.867Z,19.36
2023-10-11T11:06:01.263Z,19.42
2023-10-11T11:08:30.598Z,19.41
2023-10-11T11:11:20.651Z,19.35
2023-10-11T11:13:48.707Z,19.32
2023-10-11T11:16:17.372Z,19.35
2023-10-11T11:18:46.826Z,19.37
2023-10-11T11:21:26.532Z,19.42
2023-10-11T11:23:53.702Z,19.49
2023-10-11T11:26:32.595Z,19.54
2023-10-11T11:29:09.630Z,19.62
2023-10-11T11:31:58.514Z,19.61
2023-10-11T11:34:38.593Z,19.60
2023-10-11T11:37:15.686Z,19.65
2023-10-11T11:39:53.026Z,19.74
2023-10-11T11:42:26.211Z,19.79
2023-10-11T11:44:56.410Z,19.79
2023-10-11T11:47:25.944Z,19.85
2023-10-11T11:49:55.266Z,19.88
2023-10-11T11:52:22.214Z,19.96
2023-10-11T11:54:48.751Z,19.97
2023-10-11T11:57:15.413Z,20.00
2023-10-11T11:59:45.389Z,19.99
2023-10-11T12:02:18.373Z,19.98
2023-10-11T12:04:46.004Z,20.01
2023-10-11T12:07:15.310Z,20.01
2023-10-11T12:10:00.078Z,19.99
2023-10-11T12:12:28.414Z,20.01
2023-10-11T12:14:55.250Z,20.01
2023-10-11T12:17:22.561Z,20.04
2023-10-11T12:19:54.807Z,20.08
2023-10-11T12:22:23.559Z,20.12
2023-10-11T12:24:50.480Z,20.11
2023-10-11T12:27:17.477Z,20.05
2023-10-11T12:30:05.020Z,19.98
2023-10-11T12:32:37.230Z,19.93
2023-10-11T12:35:09.425Z,19.93
2023-10-11T12:37:36.720Z,19.92
2023-10-11T12:40:12.863Z,19.91
2023-10-11T12:42:39.673Z,19.91
2023-10-11T12:45:09.614Z,19.93
2023-10-11T12:47:36.564Z,19.92
2023-10-11T12:50:04.882Z,19.94
2023-10-11T12:52:34.317Z,19.96
2023-10-11T12:55:01.886Z,19.99
2023-10-11T12:57:29.747Z,19.97
2023-10-11T12:59:59.890Z,20.03
2023-10-11T13:02:35.103Z,20.01
2023-10-11T13:05:01.965Z,19.97
2023-10-11T13:07:28.562Z,19.98
2023-10-11T13:09:55.475Z,19.98
2023-10-11T13:12:23.485Z,20.02
2023-10-11T13:14:52.426Z,20.01
2023-10-11T13:17:19.020Z,20.04
2023-10-11T13:19:45.562Z,20.07
2023-10-11T13:22:14.198Z,20.06
2023-10-11T13:24:41.139Z,20.08
2023-10-11T13:27:09.228Z,20.07
2023-10-11T13:29:35.772Z,20.05
2023-10-11T13:32:05.343Z,20.03
2023-10-11T13:34:35.077Z,20.02
2023-10-11T13:37:04.632Z,20.05
2023-10-11T13:39:41.019Z,20.10
2023-10-11T13:42:15.874Z,20.06
2023-10-11T13:44:44.914Z,20.04
2023-10-11T13:47:12.499Z,20.03
2023-10-11T13:49:40.989Z,20.02
2023-10-11T13:52:08.787Z,20.06
2023-10-11T13:54:37.862Z,20.03
2023-10-11T13:57:08.721Z,20.00
2023-10-11T13:59:44.062Z,20.02
2023-10-11T14:02:22.778Z,20.04
2023-10-11T14:04:50.586Z,20.04
2023-10-11T14:07:35.820Z,20.01
2023-10-11T14:10:15.096Z,19.98
2023-10-11T14:12:41.918Z,19.98
2023-10-11T14:15:12.829Z,19.95
2023-10-11T14:17:44.115Z,19.93
2023-10-11T14:20:20.888Z,19.89
2023-10-11T14:22:47.669Z,19.86
2023-10-11T14:25:14.352Z,19.86
2023-10-11T14:27:41.092Z,19.84
2023-10-11T14:30:15.027Z,19.84
2023-10-11T14:32:46.603Z,19.84
2023-10-11T14:35:15.954Z,19.81
2023-10-11T14:37:42.793Z,19.80
2023-10-11T14:40:17.084Z,19.79
2023-10-11T14:42:48.762Z,19.79
2023-10-11T14:45:17.448Z,19.78
2023-10-11T14:47:48.014Z,19.81
2023-10-11T14:50:16.004Z,19.81
2023-10-11T14:52:45.463Z,19.83
2023-10-11T14:55:18.686Z,19.84
2023-10-11T14:57:51.095Z,19.84
2023-10-11T15:00:19.159Z,19.86
2023-10-11T15:02:46.379Z,19.88
2023-10-11T15:05:19.637Z,19.88
2023-10-11T15:07:47.752Z,19.89
2023-10-11T15:10:15.599Z,19.92
2023-10-11T15:12:45.481Z,19.89
2023-10-11T15:15:13.597Z,19.86
2023-10-11T15:17:40.417Z,19.85
2023-10-11T15:20:10.461Z,19.86
2023-10-11T15:22:37.390Z,19.85
2023-10-11T15:25:05.259Z,19.85
2023-10-11T15:27:32.499Z,19.87
2023-10-11T15:30:01.003Z,19.86
2023-10-11T15:32:27.730Z,19.85
2023-10-11T15:34:55.814Z,19.86
2023-10-11T15:37:22.420Z,19.84
2023-10-11T15:39:50.488Z,19.83
2023-10-11T15:42:18.827Z,19.85
2023-10-11T15:44:47.829Z,19.86
2023-10-11T15:47:15.823Z,19.83
2023-10-11T15:49:43.197Z,19.85
2023-10-11T15:52:12.642Z,19.81
2023-10-11T15:54:39.309Z,19.78
2023-10-11T15:57:05.839Z,19.77
2023-10-11T15:59:32.390Z,19.75
2023-10-11T16:02:06.629Z,19.71
2023-10-11T16:04:33.926Z,19.71
2023-10-11T16:07:00.736Z,19.71
2023-10-11T16:09:28.305Z,19.69
2023-10-11T16:11:55.126Z,19.65
2023-10-11T16:14:21.679Z,19.64
2023-10-11T16:16:48.281Z,19.60
2023-10-11T16:19:14.835Z,19.60
2023-10-11T16:21:42.014Z,19.56
2023-10-11T16:24:09.025Z,19.53
2023-10-11T16:26:40.049Z,19.46
2023-10-11T16:29:06.843Z,19.44
2023-10-11T16:31:33.878Z,19.41
2023-10-11T16:34:00.448Z,19.36
2023-10-11T16:36:27.151Z,19.32
2023-10-11T16:38:57.532Z,19.30
2023-10-11T16:41:24.534Z,19.28
2023-10-11T16:43:52.282Z,19.25
2023-10-11T16:46:30.496Z,19.24
2023-10-11T16:49:00.222Z,19.25
2023-10-11T16:51:29.658Z,19.27
2023-10-11T16:53:56.675Z,19.25
2023-10-11T16:56:24.726Z,19.21
2023-10-11T16:58:53.099Z,19.19
2023-10-11T17:01:20.073Z,19.16
2023-10-11T17:03:46.803Z,19.12
2023-10-11T17:06:13.557Z,19.05
2023-10-11T17:08:40.182Z,19.02
2023-10-11T17:11:11.486Z,18.99
2023-10-11T17:13:38.677Z,18.98
2023-10-11T17:16:07.309Z,18.94
2023-10-11T17:18:37.210Z,18.93
2023-10-11T17:21:05.003Z,18.93
2023-10-11T17:23:34.176Z,18.90
2023-10-11T17:26:14.333Z,18.89
2023-10-11T17:28:42.320Z,18.87
2023-10-11T17:31:11.847Z,18.87
2023-10-11T17:33:39.372Z,18.79
2023-10-11T17:36:09.964Z,18.75
2023-10-11T17:38:37.701Z,18.66
2023-10-11T17:41:10.196Z,18.65
2023-10-11T17:43:37.908Z,18.64
2023-10-11T17:46:08.224Z,18.64
2023-10-11T17:48:36.345Z,18.65
2023-10-11T17:51:07.451Z,18.63
2023-10-11T17:53:37.113Z,18.63
2023-10-11T17:56:05.562Z,18.71
2023-10-11T17:58:32.392Z,18.72
2023-10-11T18:00:58.961Z,18.69
2023-10-11T18:03:25.688Z,18.70
2023-10-11T18:05:52.399Z,18.70
2023-10-11T18:08:18.910Z,18.72
2023-10-11T18:10:45.432Z,18.71
2023-10-11T18:13:11.959Z,18.72
2023-10-11T18:15:39.005Z,18.73
2023-10-11T18:18:11.345Z,18.74
2023-10-11T18:20:38.868Z,18.73
2023-10-11T18:23:10.065Z,18.73
2023-10-11T18:25:38.462Z,18.77
2023-10-11T18:28:06.447Z,18.75
2023-10-11T18:30:36.786Z,18.73
2023-10-11T18:33:04.135Z,18.77
2023-10-11T18:35:32.156Z,18.81
2023-10-11T18:37:58.924Z,18.78
2023-10-11T18:40:27.123Z,18.79
2023-10-11T18:42:54.868Z,18.77
2023-10-11T18:45:22.594Z,18.81
2023-10-11T18:47:50.822Z,18.82
2023-10-11T18:50:18.740Z,18.83
2023-10-11T18:52:46.857Z,18.81
2023-10-11T18:55:14.491Z,18.79
2023-10-11T18:57:41.837Z,18.77
2023-10-11T19:00:13.249Z,18.75
2023-10-11T19:02:42.958Z,18.75
2023-10-11T19:05:20.038Z,18.74
2023-10-11T19:07:53.547Z,18.73
2023-10-11T19:10:21.217Z,18.72
2023-10-11T19:12:53.659Z,18.72
2023-10-11T19:15:20.320Z,18.71
2023-10-11T19:17:52.080Z,18.71
2023-10-11T19:20:20.888Z,18.69
2023-10-11T19:22:53.995Z,18.68
2023-10-11T19:25:23.650Z,18.67
2023-10-11T19:27:52.379Z,18.65
2023-10-11T19:30:22.451Z,18.64
2023-10-11T19:32:51.021Z,18.60
2023-10-11T19:35:20.418Z,18.56
2023-10-11T19:37:47.019Z,18.52
2023-10-11T19:40:17.004Z,18.48
2023-10-11T19:42:45.750Z,18.46
2023-10-11T19:45:19.782Z,18.45
2023-10-11T19:47:48.350Z,18.45
2023-10-11T19:50:16.434Z,18.46
2023-10-11T19:52:44.892Z,18.48
2023-10-11T19:55:14.480Z,18.48
2023-10-11T19:57:45.135Z,18.45
2023-10-11T20:00:13.661Z,18.43
2023-10-11T20:02:43.383Z,18.46
2023-10-11T20:05:15.205Z,18.46
2023-10-11T20:07:44.448Z,18.48
2023-10-11T20:10:14.976Z,18.45
2023-10-11T20:12:54.890Z,18.48
2023-10-11T20:15:21.647Z,18.46
2023-10-11T20:17:53.843Z,18.45
2023-10-11T20:20:22.088Z,18.48
2023-10-11T20:22:50.827Z,18.48
2023-10-11T20:25:21.459Z,18.48
2023-10-11T20:27:50.530Z,18.46
2023-10-11T20:30:19.238Z,18.48
2023-10-11T20:32:52.189Z,18.52
2023-10-11T20:35:25.670Z,18.51
2023-10-11T20:37:57.557Z,18.52
2023-10-11T20:40:24.507Z,18.52
2023-10-11T20:42:57.191Z,18.51
2023-10-11T20:45:24.598Z,18.52
2023-10-11T20:47:55.779Z,18.50
2023-10-11T20:50:29.757Z,18.48
2023-10-11T20:52:58.080Z,18.47
2023-10-11T20:55:24.948Z,18.45
2023-10-11T20:58:20.183Z,18.43
2023-10-11T21:00:51.595Z,18.42
2023-10-11T21:03:21.536Z,18.45
2023-10-11T21:05:53.203Z,18.48
2023-10-11T21:08:26.034Z,18.46
2023-10-11T21:10:53.867Z,18.46
2023-10-11T21:13:31.736Z,18.46
2023-10-11T21:16:01.057Z,18.49
2023-10-11T21:18:28.645Z,18.49
2023-10-11T21:20:55.868Z,18.44
2023-10-11T21:23:23.147Z,18.43
2023-10-11T21:25:53.902Z,18.43
2023-10-11T21:28:20.548Z,18.41
2023-10-11T21:30:47.444Z,18.41
2023-10-11T21:33:17.814Z,18.40
2023-10-11T21:35:44.851Z,18.39
2023-10-11T21:38:11.876Z,18.36
2023-10-11T21:40:41.372Z,18.37
2023-10-11T21:43:09.660Z,18.36
2023-10-11T21:45:36.243Z,18.37
2023-10-11T21:48:07.175Z,18.34
2023-10-11T21:50:34.245Z,18.34
2023-10-11T21:53:00.928Z,18.31
2023-10-11T21:55:28.243Z,18.33
2023-10-11T21:57:58.333Z,18.31
2023-10-11T22:00:44.266Z,18.32
2023-10-11T22:03:10.982Z,18.32
2023-10-11T22:05:40.370Z,18.31
2023-10-11T22:08:06.859Z,18.28
2023-10-11T22:10:36.184Z,18.24
2023-10-11T22:13:05.027Z,18.24
2023-10-11T22:15:31.613Z,18.21
2023-10-11T22:17:58.288Z,18.21
2023-10-11T22:20:28.815Z,18.22
2023-10-11T22:22:57.354Z,18.20
2023-10-11T22:25:25.478Z,18.19
2023-10-11T22:27:56.357Z,18.13
2023-10-11T22:30:25.008Z,18.12
2023-10-11T22:32:53.616Z,18.06
2023-10-11T22:35:21.257Z,18.07
2023-10-11T22:37:48.712Z,18.03
2023-10-11T22:40:16.718Z,18.02
2023-10-11T22:42:44.946Z,18.03
2023-10-11T22:45:13.296Z,18.00
2023-10-11T22:47:39.899Z,17.99
2023-10-11T22:50:07.452Z,17.97
2023-10-11T22:52:36.823Z,17.97
2023-10-11T22:55:08.079Z,17.95
2023-10-11T22:57:37.221Z,17.92
2023-10-11T23:00:20.816Z,17.93
2023-10-11T23:02:52.355Z,17.92
2023-10-11T23:05:23.325Z,17.91
2023-10-11T23:07:50.982Z,17.90
2023-10-11T23:10:23.477Z,17.89
2023-10-11T23:12:51.914Z,17.92
2023-10-11T23:15:29.518Z,17.89
2023-10-11T23:17:58.614Z,17.90
2023-10-11T23:20:37.576Z,17.90
2023-10-11T23:23:15.241Z,17.88
2023-10-11T23:25:52.265Z,17.88
2023-10-11T23:28:23.183Z,17.88
2023-10-11T23:30:56.119Z,17.89
2023-10-11T23:33:25.141Z,17.88
2023-10-11T23:35:52.778Z,17.87
2023-10-11T23:38:32.511Z,17.85
2023-10-11T23:41:25.962Z,17.84
2023-10-11T23:44:01.239Z,17.83
2023-10-11T23:46:36.150Z,17.81
2023-10-11T23:49:09.764Z,17.81
2023-10-11T23:51:40.930Z,17.79
2023-10-11T23:54:12.457Z,17.78
2023-10-11T23:56:45.622Z,17.79
2023-10-11T23:59:17.719Z,17.74
